HOURLY OBS INDEX

086

Central - east

CERBERUS

Site: 086361
Alt: 12.7m
20km SE of MORNINGTON


  Time     Wind        Temp  DP   Baro     Rain since   Rain past  Vis(m), Cloud(base in m), Weather
  local        km/h                         9am  last   hr   10m    
Sat 00:00  WNW 22/ 39   7.8  4.0  1004.7    8.4   0.0   0.0   0.0   ----- 
Sat 00:30  WNW 24/ 37   7.8  4.4  1004.6    8.4   0.0   0.0   0.0   ----- 
Sat 01:00  WNW 24/ 35   7.8  4.6  1004.7    8.4   0.0   0.0   0.0   ----- 
Sat 01:30  WNW 22/ 39   7.7  4.7  1004.8    8.6   0.2   0.2   0.2   ----- 
Sat 02:00  WNW 24/ 33   7.1  4.8  1004.7    8.8   0.2   0.4   0.0   ----- 
Sat 02:30  WNW 22/ 35   7.3  5.4  1004.3    9.4   0.6   0.8   0.2   ----- 
Sat 03:00    W 11/ 15   7.9  6.0  1004.4    9.6   0.2   0.8   0.2   ----- 
Sat 03:30  WSW 11/ 20   8.1  6.2  1004.7    9.6   0.0   0.2   0.0   ----- 
Sat 04:00  SSW 24/ 37   9.8  7.4  1004.9    9.6   0.0   0.0   0.0   ----- 
Sat 04:27   SW 28/ 50  10.1  7.5  1005.1    9.8   0.2  ----   0.2   ----- 
Sat 04:30   SW 30/ 50  10.3  7.5  1005.1    9.8   0.0   0.2   0.0   ----- 
Sat 05:00  SSW 33/ 50  10.5  7.0  1006.0    9.8   0.0   0.2   0.0   ----- 
Sat 05:08   SW 35/ 58  10.0  6.9  1006.2    9.8   0.0   0.0   0.0   ----- 
Sat 05:30  SSW 35/ 58   9.3  6.7  1006.8   10.2   0.0   0.0   0.4   ----- 

COLDSTREAM

Site: 086383
Alt: 83.0m
12km SW of HEALESVILLE


  Time     Wind        Temp  DP   Baro     Rain since   Rain past  Vis(m), Cloud(base in m), Weather
  local        km/h                         9am  last   hr   10m    
Sat 00:00    N  6/  9   3.7  3.7  1007.0   12.2   0.0   0.0   0.0   ----- 
Sat 00:30    N  6/  9   2.9  2.8  1006.9   12.2   0.0   0.0   0.0   ----- 
Sat 01:00  NNE  2/  7   2.3  2.2  1007.1   12.2   0.0   0.0   0.0   ----- 
Sat 01:30    N  4/  7   3.6  3.5  1007.1   12.2   0.0   0.0   0.0   ----- 
Sat 02:00    N  6/  7   3.6  3.5  1007.0   12.2   0.0   0.0   0.0   ----- 
Sat 02:30    N  2/  7   4.7  4.6  1006.8   12.2   0.0   0.0   0.0   ----- 
Sat 03:00  NNW 11/ 15   5.4  5.1  1006.6   12.4   0.2   0.2   0.2   ----- 
Sat 03:30  NNW  7/ 13   5.5  5.4  1006.6   12.8   0.4   0.6   0.2   ----- 
Sat 04:00    N  6/ 13   5.7  5.6  1006.7   13.4   0.6   1.0   0.2   ----- 
Sat 04:30    W  4/  7   6.0  5.9  1007.0   16.8   3.4   4.0   1.8   ----- 
Sat 05:00  NNW  7/ 11   6.2  6.2  1007.4   19.4   2.6   6.0   0.4   ----- 
Sat 05:30    W  7/ 13   6.5  6.5  1008.0   20.6   0.0   0.0   1.0   ----- 

COLDSTREAM COMPARISON

Site: 086320
Alt: 83.0m
12km SW of HEALESVILLE


  Time     Wind        Temp  DP   Baro     Rain since   Rain past  Vis(m), Cloud(base in m), Weather
  local        km/h                         9am  last   hr   10m    
Sat 00:00  NNW  4/  7   3.7  3.7  1007.1   12.2   0.0   0.0   0.0   ----- 
Sat 00:30    N  4/  9   3.0  2.9  1007.0   12.2   0.0   0.0   0.0   ----- 
Sat 01:00  NNE  2/  6   2.2  2.2  1007.1   12.2   0.0   0.0   0.0   ----- 
Sat 01:30    N  2/  6   3.6  3.6  1007.1   12.2   0.0   0.0   0.0   ----- 
Sat 02:00  NNE  4/  7   3.6  3.5  1007.0   12.2   0.0   0.0   0.0   ----- 
Sat 02:30    N  2/  6   4.7  4.6  1006.9   12.2   0.0   0.0   0.0   ----- 
Sat 03:00  WNW  7/ 13   5.4  4.5  1006.7   12.4   0.2   0.2   0.2   ----- 
Sat 03:30  WNW  6/ 11   5.4  5.1  1006.7   12.8   0.4   0.6   0.2   ----- 
Sat 04:00    N  4/  9   5.7  5.6  1006.8   13.4   0.6   1.0   0.2   ----- 
Sat 04:30  WSW  2/  6   5.9  5.9  1007.1   16.8   3.4   4.0   1.8   ----- 
Sat 05:00   NW  6/  9   6.1  6.1  1007.4   19.4   2.6   6.0   0.4   ----- 
Sat 05:30  WSW  6/ 11   6.5  6.5  1008.1   20.6   0.0   0.0   1.0   ----- 

ESSENDON AIRPORT

Site: 086038
Alt: 78.4m
12km NNW of MELBOURNE CBD


  Time     Wind        Temp  DP   Baro     Rain since   Rain past  Vis(m), Cloud(base in m), Weather
  local        km/h                         9am  last   hr   10m    
Sat 00:00  WNW 19/ 28   5.9  2.7  1006.7    1.6   0.0   0.0   0.0   10000 
Sat 00:30  WNW 20/ 28   5.8  2.6  1006.7    1.6   0.0   0.0   0.0   10000 
Sat 01:00  WNW 20/ 26   5.8  2.6  1006.6    1.6   0.0   0.0   0.0   10000|SC1620 
Sat 01:30   NW 20/ 26   6.0  2.8  1006.6    1.6   0.0   0.0   0.0   10000 
Sat 02:00  WNW 22/ 32   6.5  3.5  1006.7    1.6   0.0   0.0   0.0   10000|SC1200 SC1560 BR1770 
Sat 02:30    W 28/ 35   6.8  4.6  1006.5    1.6   0.0   0.0   0.0   10000|SC 630 BR1080 OC1500 
Sat 03:00    W 24/ 35   6.6  5.4  1006.5    2.0   0.4   0.4   0.4   10000|SC 840 OC1080 
Sat 03:30    W 26/ 35   7.1  5.7  1006.6    2.0   0.0   0.4   0.0   10000|SC 450 SC 840 BR1080 
Sat 04:00  WSW 33/ 45   7.3  5.8  1006.9    2.0   0.0   0.0   0.0   10000|SC 450 OC1260 OC1440 
Sat 04:30  WSW 39/ 52   7.2  6.1  1007.2    2.6   0.6   0.6   0.4    9000|SC 390 SC 840 BR1080 
Sat 05:00  WSW 35/ 43   7.3  6.4  1007.8    3.8   1.2   1.8   0.6   10000|SC 570 SC 810 BR1050 
Sat 05:20  WSW 35/ 46   7.4  6.7  1008.4    4.2   0.0   0.0   0.2   10000|BR 480 BR 780 BR 990 
Sat 05:30  WSW 37/ 50   7.4  6.7  1008.6    4.8   0.0   0.0   0.6    8000|SC 480 BR 960 BR1140 
Sat 05:34  WSW 37/ 50   7.4  6.8  1008.8    4.8   0.0   0.0   0.4    8000|SC 480 SC 840 BR1140 

FAWKNER BEACON

Site: 086376
Alt: 17.0m
15km SSW of MELBOURNE CBD


  Time     Wind        Temp  DP   Baro     Rain since   Rain past  Vis(m), Cloud(base in m), Weather
  local        km/h                         9am  last   hr   10m    
Sat 00:00  WNW 39/ 46 --------  ------   ----  ----  ----  ----   ----- 
Sat 00:30  WNW 39/ 48 --------  ------   ----  ----  ----  ----   ----- 
Sat 01:00  WNW 41/ 48 --------  ------   ----  ----  ----  ----   ----- 
Sat 01:30  WNW 41/ 50 --------  ------   ----  ----  ----  ----   ----- 
Sat 02:00  WNW 43/ 50 --------  ------   ----  ----  ----  ----   ----- 
Sat 02:30    W 39/ 48 --------  ------   ----  ----  ----  ----   ----- 
Sat 03:00    W 43/ 50 --------  ------   ----  ----  ----  ----   ----- 
Sat 03:30    W 52/ 63 --------  ------   ----  ----  ----  ----   ----- 
Sat 04:00  WSW 54/ 65 --------  ------   ----  ----  ----  ----   ----- 
Sat 04:29  WSW 58/ 78 --------  ------   ----  ----  ----  ----   ----- 
Sat 04:30  WSW 58/ 83 --------  ------   ----  ----  ----  ----   ----- 
Sat 05:00   SW 59/ 76 --------  ------   ----  ----  ----  ----   ----- 
Sat 05:04   SW 58/ 76 --------  ------   ----  ----  ----  ----   ----- 
Sat 05:30  SSW 58/ 69 --------  ------   ----   0.0   0.0  ----   ----- 

FERNY CREEK

Site: 086266
Alt: 512.9m
26km NNE of CRANBOURNE


  Time     Wind        Temp  DP   Baro     Rain since   Rain past  Vis(m), Cloud(base in m), Weather
  local        km/h                         9am  last   hr   10m    
Sat 00:00  WNW  6/  9   2.3  2.3  1005.2   10.8   0.0   0.0   0.0   ----- 
Sat 00:30   NW  6/ 13   2.3  2.3  1005.3   10.8   0.0   0.0   0.0   ----- 
Sat 01:00   NW  9/ 19   2.3  2.3  1005.3   10.8   0.0   0.0   0.0   ----- 
Sat 01:30   NW  7/ 19   2.3  2.3  1005.2   10.8   0.0   0.0   0.0   ----- 
Sat 02:00   NW  6/ 13   2.2  2.2  1005.1   10.8   0.0   0.0   0.0   ----- 
Sat 02:30   NW  6/ 15   2.2  2.2  1005.1   11.2   0.4   0.4   0.4   ----- 
Sat 03:00   NW  7/ 15   2.1  2.1  1004.9   11.6   0.4   0.8   0.2   ----- 
Sat 03:30   NW  7/ 13   2.1  2.1  1004.8   12.8   1.2   1.6   0.0   ----- 
Sat 04:00  WNW  4/ 19   2.5  2.5  1005.1   15.0   2.2   3.4   1.4   ----- 
Sat 04:30    W  4/  7   3.5  3.5  1005.5   16.0   1.0   3.2   0.2   ----- 
Sat 05:00  WNW  4/ 11   4.1  4.1  1005.7   16.8   0.8   1.8   0.4   ----- 
Sat 05:30    W  9/ 32   5.0  5.0  1006.3   17.6   0.0   0.0   0.0   ----- 

FRANKSTON AWS

Site: 086371
Alt: 6.0m
11km NE of MORNINGTON


  Time     Wind        Temp  DP   Baro     Rain since   Rain past  Vis(m), Cloud(base in m), Weather
  local        km/h                         9am  last   hr   10m    
Sat 00:00    W 43/ 50 --------  ------   ----  ----  ----  ----   ----- 
Sat 00:30    W 43/ 54 --------  ------   ----  ----  ----  ----   ----- 
Sat 01:00  WNW 43/ 52 --------  ------   ----  ----  ----  ----   ----- 
Sat 01:30  WNW 48/ 56 --------  ------   ----  ----  ----  ----   ----- 
Sat 02:00    W 45/ 54 --------  ------   ----  ----  ----  ----   ----- 
Sat 02:30    W 41/ 50 --------  ------   ----  ----  ----  ----   ----- 
Sat 03:00    W 39/ 48 --------  ------   ----  ----  ----  ----   ----- 
Sat 03:30    W 37/ 48 --------  ------   ----  ----  ----  ----   ----- 
Sat 04:00  WSW 26/ 33 --------  ------   ----  ----  ----  ----   ----- 
Sat 04:30  SSW 19/ 26 --------  ------   ----  ----  ----  ----   ----- 
Sat 05:00   SW 24/ 48 --------  ------   ----  ----  ----  ----   ----- 
Sat 05:22  SSW 28/ 50 --------  ------   ----   0.0   0.0  ----   ----- 
Sat 05:30  SSW 26/ 39 --------  ------   ----   0.0   0.0  ----   ----- 

MELBOURNE (OLYMPIC PARK)

Site: 086338
Alt: 7.5m
1km NW of MELBOURNE CBD


  Time     Wind        Temp  DP   Baro     Rain since   Rain past  Vis(m), Cloud(base in m), Weather
  local        km/h                         9am  last   hr   10m    
Sat 00:00   NW 11/ 17   7.1  2.8  1006.7    2.2   0.0   0.0   0.0   10000 
Sat 00:30   NW 11/ 17   7.2  3.1  1006.7    2.2   0.0   0.0   0.0   10000 
Sat 01:00  NNW 15/ 24   7.1  2.8  1006.6    2.2   0.0   0.0   0.0   10000 
Sat 01:30  NNW 15/ 20   7.2  2.9  1006.6    2.2   0.0   0.0   0.0   10000 
Sat 02:00   NW 11/ 22   7.5  3.6  1006.7    2.2   0.0   0.0   0.0   10000 
Sat 02:30  WNW 11/ 20   7.8  4.4  1006.5    2.2   0.0   0.0   0.0   10000 
Sat 03:00  WNW  9/ 20   7.5  5.6  1006.6    2.6   0.4   0.4   0.4   10000 
Sat 03:30    W 11/ 22   7.6  6.2  1006.5    3.0   0.4   0.8   0.0   10000 
Sat 04:00    W 15/ 35   8.1  6.4  1006.6    3.0   0.0   0.4   0.0   10000 
Sat 04:28    W 15/ 32   7.9  6.8  1007.0    3.4   0.4  ----   0.4    7000 
Sat 04:30    W 17/ 32   7.8  6.9  1007.0    3.4   0.0   0.4   0.4    6000 
Sat 05:00    W 20/ 37   7.7  7.1  1007.6    5.2   1.8   2.2   0.6    8000 
Sat 05:17    W 15/ 28   7.9  7.5  1008.0    5.6   0.0   0.0   0.2   10000 
Sat 05:30    W 13/ 28   8.1  7.8  1008.4    5.8   0.0   0.0   0.0   10000 

MELBOURNE AIRPORT

Site: 086282
Alt: 113.4m
21km NW of MELBOURNE CBD


  Time     Wind        Temp  DP   Baro     Rain since   Rain past  Vis(m), Cloud(base in m), Weather
  local        km/h                         9am  last   hr   10m    
Sat 00:00  WNW 17/ 22   4.4  1.9  1007.0    2.6   0.0   0.0   0.0   10000 
Sat 00:30  WNW 20/ 30   4.7  1.4  1007.0    2.6   0.0   0.0   0.0   10000 
Sat 01:00  WNW 20/ 28   5.1  1.9  1006.8    2.6   0.0   0.0   0.0   10000 
Sat 01:30  WNW 20/ 26   5.6  2.4  1006.8    2.6   0.0   0.0   0.0   10000 
Sat 02:00  WNW 20/ 30   6.3  3.0  1006.8    2.6   0.0   0.0   0.0  *10000|FE1170sc BR1830sc 
Sat 02:30    W 33/ 43   6.5  4.4  1006.8    3.0   0.4   0.4   0.4  *10000|BR1200sc OC1410sc|mdShRA 
Sat 03:00    W 28/ 35   6.5  4.9  1006.8    3.4   0.4   0.8   0.0  *10000|FE 540st OC1080sc 
Sat 03:30    W 28/ 39   6.9  5.1  1006.9    3.4   0.0   0.4   0.0  *10000|FE 510st BR1140sc 
Sat 03:33    W 30/ 48   7.0  5.0  1007.0    3.4   0.0  ----   0.0  *10000|FE 570st OC1200sc 
Sat 04:00    W 39/ 48   7.0  5.0  1007.3    3.4   0.0   0.0   0.0  *10000|FE 540st OC1200sc|ltShRA 
Sat 04:30  WSW 37/ 52   6.9  5.3  1007.8    4.4   1.0   1.0   0.2  *10000|OC 990sc|ltShRA 
Sat 05:00    W 32/ 41   7.0  6.1  1008.3    7.2   2.8   3.8   0.6  *10000|FE 420st OC 900sc|mdShRA 
Sat 05:28  WSW 35/ 56   7.4  5.9  1008.9    8.0   0.0   0.0   0.4  *10000|FE 480st BR 900sc|mdShRA 
Sat 05:30  WSW 35/ 56   7.3  6.0  1009.1    8.0   0.0   0.0   0.0  *10000|FE 480st BR 840sc|mdShRA 

MELBOURNE AIRPORT (NORTH ANEMOMETER)

Site: 086395
Alt: 127.0m
22km NW of MELBOURNE CBD


  Time     Wind        Temp  DP   Baro     Rain since   Rain past  Vis(m), Cloud(base in m), Weather
  local        km/h                         9am  last   hr   10m    
Unk   :     NW 11/ 17 --------  ------   ----  ----  ----  ----   ----- 
Unk   :    WNW 13/ 22 --------  ------   ----  ----  ----  ----   ----- 
Unk   :    WNW 13/ 26 --------  ------   ----  ----  ----  ----   ----- 
Unk   :    WNW 13/ 20 --------  ------   ----  ----  ----  ----   ----- 
Unk   :    WNW 15/ 26 --------  ------   ----  ----  ----  ----   ----- 
Unk   :      W 20/ 30 --------  ------   ----  ----  ----  ----   ----- 
Unk   :      W 19/ 30 --------  ------   ----  ----  ----  ----   ----- 
Unk   :      W 24/ 37 --------  ------   ----  ----  ----  ----   ----- 
Unk   :    WSW 32/ 50 --------  ------   ----  ----  ----  ----   ----- 
Unk   :    WSW 33/ 45 --------  ------   ----  ----  ----  ----   ----- 
Unk   :    WSW 35/ 56 --------  ------   ----  ----  ----  ----   ----- 
Unk   :    WSW 37/ 52 --------  ------   ----  ----  ----  ----   ----- 
Unk   :    WSW 26/ 39 --------  ------   ----  ----  ----  ----   ----- 
Unk   :    WSW 32/ 50 --------  ------   ----   0.0   0.0  ----   ----- 
Unk   :    WSW 35/ 50 --------  ------   ----   0.0   0.0  ----   ----- 

MELBOURNE AIRPORT (SOUTH ANEMOMETER)

Site: 086396
Alt: 99.0m
19km NW of MELBOURNE CBD


  Time     Wind        Temp  DP   Baro     Rain since   Rain past  Vis(m), Cloud(base in m), Weather
  local        km/h                         9am  last   hr   10m    
Unk   :    WSW 28/ 46 --------  ------   ----  ----  ----  ----   ----- 
Unk   :    WSW 28/ 46 --------  ------   ----   0.0   0.0  ----   ----- 

MELBOURNE AIRPORT (WEST ANEMOMETER)

Site: 086398
Alt: 117.0m
22km NW of MELBOURNE CBD


  Time     Wind        Temp  DP   Baro     Rain since   Rain past  Vis(m), Cloud(base in m), Weather
  local        km/h                         9am  last   hr   10m    
Unk   :      W 28/ 50 --------  ------   ----  ----  ----  ----   ----- 

MOORABBIN AIRPORT

Site: 086077
Alt: 12.1m
21km SSE of MELBOURNE CBD


  Time     Wind        Temp  DP   Baro     Rain since   Rain past  Vis(m), Cloud(base in m), Weather
  local        km/h                         9am  last   hr   10m    
Sat 00:00  WNW 24/ 39   7.6  4.0  1006.1    5.2   0.0   0.0   0.0   10000|BR1590 
Sat 00:30  WNW 22/ 32   7.5  4.1  1006.2    5.2   0.0   0.0   0.0   10000|BR1590 
Sat 01:00  WNW 22/ 33   7.2  3.8  1006.1    5.2   0.0   0.0   0.0   10000 
Sat 01:30   NW 20/ 32   7.3  4.1  1006.2    5.2   0.0   0.0   0.0   10000|SC1410 SC2250 SC3000 
Sat 02:00  WNW 22/ 33   7.7  4.5  1006.2    5.2   0.0   0.0   0.0   10000|SC1050 BR1260 OC1440 
Sat 02:30  WNW 22/ 33   7.2  5.2  1006.0    5.8   0.6   0.6   0.2   10000|BR 510 BR1170 OC1470 
Sat 03:00  WNW 20/ 28   7.7  6.3  1005.7    6.2   0.4   1.0   0.4    9000|OC 390 
Sat 03:01  WNW 20/ 35   7.8  6.4  1005.7    6.2   0.0  ----   0.4    9000|BR 330 OC 450 
Sat 03:27  WNW 22/ 33   7.8  6.7  1005.8    6.4   0.2  ----   0.2    5000|BR 390 OC 540 OC 720 
Sat 03:30  WNW 20/ 33   7.9  7.0  1005.7    6.6   0.2   0.8   0.4    4600|BR 390 OC 540 OC 720 
Sat 03:44    W 24/ 35   8.4  7.6  1005.6    6.8   0.2  ----   0.2   10000|BR 390 OC 540 
Sat 04:00    W 28/ 41   8.9  7.8  1005.8    6.8   0.0   0.6   0.0   10000|BR 390 BR 810 OC1110 
Sat 04:11    W 30/ 45   8.9  7.5  1005.7    6.8   0.0  ----   0.0   10000|SC 510 BR 810 BR1080 
Sat 04:28    W 26/ 43   9.2  8.4  1006.4    7.2   0.4  ----   0.4    7000|BR 360 BR 510 OC1140 
Sat 04:30  WSW 26/ 43   8.8  7.9  1006.4    7.2   0.0   0.6   0.2    9000|BR 360 BR 510 OC1140 
Sat 04:36   SW 13/ 19   8.9  7.8  1006.3    7.6   0.4  ----   0.4    5000|BR 360 BR 570 OC 900 
Sat 04:48  SSW 33/ 45   9.7  8.5  1006.5    7.6   0.0  ----   0.0   10000|SC 360 BR 630 BR 960 
Sat 04:52  SSW 33/ 50  10.0  8.3  1006.6    7.6   0.0  ----   0.0   10000|SC 360 BR 630 BR 960 
Sat 04:53  SSW 33/ 54  10.2  8.5  1006.7    7.6   0.0  ----   0.0   10000|SC 360 BR 630 BR 960 
Sat 05:00  SSW 39/ 56   9.0  7.0  1007.0    8.0   0.4   1.2   0.4    7000|SC 450 BR 630 BR 960 
Sat 05:04  SSW 37/ 56   9.5  7.8  1007.1    8.0   0.0  ----   0.4    6000|SC 450 SC 630 BR 960 
Sat 05:10  SSW 35/ 61   9.4  8.3  1007.3    8.6   0.0   0.0   0.6    4800|SC 480 BR 660 BR1080 
Sat 05:30  SSW 37/ 59  10.1  9.5  1007.7    9.2   0.0   0.0   0.2   10000|SC 450 BR 690 OC1110 
Sat 05:32  SSW 39/ 59  10.1  9.3  1007.7    9.2   0.0   0.0   0.2   10000|SC 450 BR 690 OC1170 

RHYLL

Site: 086373
Alt: 13.4m
29km NW of WONTHAGGI


  Time     Wind        Temp  DP   Baro     Rain since   Rain past  Vis(m), Cloud(base in m), Weather
  local        km/h                         9am  last   hr   10m    
Sat 00:00    W 15/ 28   8.3  4.1  1004.6    6.6   0.0   0.0   0.0   ----- 
Sat 00:30    W 13/ 30   8.1  4.3  1004.5    6.6   0.0   0.0   0.0   ----- 
Sat 01:00  WNW 15/ 32   8.2  5.0  1004.5    6.6   0.0   0.0   0.0   ----- 
Sat 01:30  WNW 17/ 33   7.8  5.1  1004.6    7.2   0.6   0.6   0.0   ----- 
Sat 02:00    W 15/ 33   7.6  5.2  1004.6    7.6   0.4   1.0   0.2   ----- 
Sat 02:30  WNW 13/ 22   7.7  5.8  1004.4    7.8   0.2   0.6   0.0   ----- 
Sat 03:00  WNW  9/ 24   8.0  6.1  1004.3    8.6   0.8   1.0   0.0   ----- 
Sat 03:30  WSW 13/ 24   8.8  6.4  1004.6    8.6   0.0   0.8   0.0   ----- 
Sat 04:00   SW 17/ 35   9.8  7.2  1005.1    9.0   0.4   0.4   0.4   ----- 
Sat 04:30   SW 19/ 41   9.2  7.2  1005.0   11.6   2.6   3.0   1.0   ----- 
Sat 04:37   SW 28/ 46   9.9  7.8  1005.0   11.6   0.0  ----   0.0   ----- 
Sat 05:00  SSW 32/ 50  10.2  7.4  1005.7   11.6   0.0   2.6   0.0   ----- 
Sat 05:30  SSW 33/ 58   9.4  7.3  1006.4   12.8   0.0   0.0   0.0   ----- 

SCORESBY RESEARCH INSTITUTE

Site: 086104
Alt: 80.0m
25km ESE of MELBOURNE CBD


  Time     Wind        Temp  DP   Baro     Rain since   Rain past  Vis(m), Cloud(base in m), Weather
  local        km/h                         9am  last   hr   10m    
Sat 00:00   NE  6/  9   4.2  2.9  ------    7.0   0.0   0.0   0.0   ----- 
Sat 00:30    N  4/  9   5.1  3.1  ------    7.0   0.0   0.0   0.0   ----- 
Sat 01:00    N  4/  9   5.4  2.9  ------    7.0   0.0   0.0   0.0   ----- 
Sat 01:30  NNW  7/ 11   5.6  2.9  ------    7.0   0.0   0.0   0.0   ----- 
Sat 02:00    N  6/ 11   5.8  3.0  ------    7.0   0.0   0.0   0.0   ----- 
Sat 02:30    N  6/ 11   5.7  3.5  ------    7.0   0.0   0.0   0.0   ----- 
Sat 03:00  NNE  7/ 13   5.2  3.9  ------    7.6   0.6   0.6   0.0   ----- 
Sat 03:30   NE  9/ 15   5.1  4.1  ------    8.2   0.6   1.2   0.2   ----- 
Sat 04:00    N  6/ 11   5.9  5.3  ------   10.0   1.8   2.4   1.0   ----- 
Sat 04:30  SSE  4/  7   5.9  5.5  ------   13.2   3.2   5.0   2.0   ----- 
Sat 05:00   NE  2/  7   6.1  5.7  ------   14.0   0.8   4.0   0.0   ----- 
Sat 05:30   SE  2/  7   6.3  6.0  ------   16.2   0.0   0.0   0.4   ----- 

SOUTH CHANNEL ISLAND

Site: 086344
Alt: 9.0m
23km WSW of MORNINGTON


  Time     Wind        Temp  DP   Baro     Rain since   Rain past  Vis(m), Cloud(base in m), Weather
  local        km/h                         9am  last   hr   10m    
Sat 00:00  WNW 46/ 54 --------  ------   ----  ----  ----  ----   ----- 
Sat 00:30  WNW 50/ 59 --------  ------   ----  ----  ----  ----   ----- 
Sat 01:00  WNW 52/ 59 --------  ------   ----  ----  ----  ----   ----- 
Sat 01:30    W 52/ 61 --------  ------   ----  ----  ----  ----   ----- 
Sat 02:00    W 50/ 58 --------  ------   ----  ----  ----  ----   ----- 
Sat 02:30    W 46/ 54 --------  ------   ----  ----  ----  ----   ----- 
Sat 02:52  WSW 45/ 54 --------  ------   ----  ----  ----  ----   ----- 
Sat 03:00  WSW 48/ 59 --------  ------   ----  ----  ----  ----   ----- 
Sat 03:30   SW 46/ 58 --------  ------   ----  ----  ----  ----   ----- 
Sat 03:59  SSW 58/ 76 --------  ------   ----  ----  ----  ----   ----- 
Sat 04:00  SSW 58/ 76 --------  ------   ----  ----  ----  ----   ----- 
Sat 04:30  SSW 67/ 80 --------  ------   ----  ----  ----  ----   ----- 
Sat 05:00  SSW 67/ 82 --------  ------   ----  ----  ----  ----   ----- 
Sat 05:30  SSW 65/ 80 --------  ------   ----   0.0   0.0  ----   ----- 

ST KILDA HARBOUR - RMYS

Site: 086220
Alt: 6.4m
5km SSW of MELBOURNE CBD


  Time     Wind        Temp  DP   Baro     Rain since   Rain past  Vis(m), Cloud(base in m), Weather
  local        km/h                         9am  last   hr   10m    
Sat 00:00  WNW 30/ 41 --------  ------   ----  ----  ----  ----   ----- 
Sat 00:30  WNW 32/ 39 --------  ------   ----  ----  ----  ----   ----- 
Sat 01:00  WNW 35/ 45 --------  ------   ----  ----  ----  ----   ----- 
Sat 01:30  WNW 33/ 43 --------  ------   ----  ----  ----  ----   ----- 
Sat 02:00  WNW 33/ 45 --------  ------   ----  ----  ----  ----   ----- 
Sat 02:30  WNW 35/ 43 --------  ------   ----  ----  ----  ----   ----- 
Sat 03:00    W 35/ 45 --------  ------   ----  ----  ----  ----   ----- 
Sat 03:30    W 33/ 46 --------  ------   ----  ----  ----  ----   ----- 
Sat 04:00    W 50/ 63 --------  ------   ----  ----  ----  ----   ----- 
Sat 04:30  WSW 56/ 69 --------  ------   ----  ----  ----  ----   ----- 
Sat 05:00  WSW 59/ 74 --------  ------   ----  ----  ----  ----   ----- 
Sat 05:30   SW 54/ 67 --------  ------   ----   0.0   0.0  ----   ----- 
Sat 05:31   SW 54/ 72 --------  ------   ----   0.0   0.0  ----   ----- 

VIEWBANK

Site: 086068
Alt: 66.1m
14km NE of MELBOURNE CBD


  Time     Wind        Temp  DP   Baro     Rain since   Rain past  Vis(m), Cloud(base in m), Weather
  local        km/h                         9am  last   hr   10m    
Sat 00:00    W 13/ 28   5.6  3.8  1006.7    6.8   0.0   0.0   0.0   ----- 
Sat 00:30    W 13/ 26   6.0  3.8  1006.7    7.0   0.2   0.2   0.2   ----- 
Sat 01:00  WNW 13/ 24   5.8  3.1  1006.7    7.0   0.0   0.2   0.0   ----- 
Sat 01:30    W 11/ 22   5.9  3.7  1006.6    7.0   0.0   0.0   0.0   ----- 
Sat 02:00  WNW 11/ 22   6.1  3.8  1006.7    7.0   0.0   0.0   0.0   ----- 
Sat 02:30  WNW  9/ 17   5.8  4.1  1006.6    7.0   0.0   0.0   0.0   ----- 
Sat 03:00  WSW 20/ 26   6.8  6.4  1006.4    7.0   0.0   0.0   0.0   ----- 
Sat 03:30    W 17/ 30   6.5  6.5  1006.4    8.4   1.4   1.4   0.2   ----- 
Sat 04:00    W 17/ 26   6.9  6.9  1006.5    8.6   0.2   1.6   0.0   ----- 
Sat 04:30  WSW 22/ 33   7.2  7.2  1006.8    8.8   0.2   0.4   0.0   ----- 
Sat 04:42  WSW 28/ 46   7.1  7.1  1006.7    9.2   0.4  ----   0.4   ----- 
Sat 05:00  WSW 28/ 46   7.0  7.0  1007.0   10.4   1.2   1.8   0.6   ----- 
Sat 05:30  WSW 26/ 43   7.2  7.2  1007.8   13.0   0.0   0.0   0.6   ----- 
Sat 05:35  WSW 28/ 48   7.3  7.3  1007.8   13.0   0.0   0.0   0.2   ----- 

WESTERNPORT NEAR SOMERS

Site: 086PRT
Alt: m
3km SSW of SOMERS


  Time     Wind        Temp  DP   Baro     Rain since   Rain past  Vis(m), Cloud(base in m), Weather
  local        km/h                         9am  last   hr   10m    
Sat 00:00  WNW 26/ 35   8.5  3.9  1004.1    8.8   0.0   0.0   0.0   ----- 
Sat 00:10   NW 30/ 39   8.4  3.9  1004.0    8.8   0.0  ----   0.0   ----- 
Sat 00:20   NW 30/ 37   8.4  4.1  1004.0    8.8   0.0  ----   0.0   ----- 
Sat 00:30   NW 30/ 39   8.4  4.2  1003.9    8.8   0.0   0.0   0.0   ----- 
Sat 00:40   NW 32/ 41   8.5  4.5  1003.9    8.8   0.0  ----   0.0   ----- 
Sat 00:50   NW 32/ 45   8.4  4.5  1004.0    8.8   0.0  ----   0.0   ----- 
Sat 01:00   NW 33/ 43   8.4  4.3  1004.0    8.8   0.0   0.0   0.0   ----- 
Sat 01:10  WNW 33/ 48   8.4  4.4  1004.0    8.9   0.1  ----   0.1   ----- 
Sat 01:20  WNW 30/ 41   8.4  4.4  1004.1    8.9   0.0  ----   0.0   ----- 
Sat 01:30  WNW 32/ 43   8.3  4.5  1004.0    9.3   0.4   0.5   0.4   ----- 
Sat 01:40  WNW 30/ 39   8.1  4.3  1004.0    9.4   0.1  ----   0.1   ----- 
Sat 01:50  WNW 26/ 37   8.1  4.6  1004.0    9.4   0.0  ----   0.0   ----- 
Sat 02:00  WNW 28/ 35   7.9  4.6  1004.1    9.5   0.1   0.7   0.1   ----- 
Sat 02:10  WNW 28/ 37   8.0  5.2  1004.0    9.5   0.0  ----   0.0   ----- 
Sat 02:20  WNW 26/ 33   8.1  5.2  1003.8    9.6   0.1  ----   0.1   ----- 
Sat 02:30   NW 30/ 39   8.0  5.1  1003.6    9.6   0.0   0.3   0.0   ----- 
Sat 02:40  WNW 24/ 35   8.3  5.5  1003.8    9.6   0.0  ----   0.0   ----- 
Sat 02:50    W 20/ 32   8.7  5.9  1003.7    9.6   0.0  ----   0.0   ----- 
Sat 03:00    W 22/ 39   9.1  6.0  1003.6    9.7   0.1   0.2   0.1   ----- 
Sat 03:10    W 22/ 41   9.6  6.4  1003.9    9.7   0.0  ----   0.0   ----- 
Sat 03:20  WSW 32/ 45  10.9  7.2  1003.8    9.7   0.0  ----   0.0   ----- 
Sat 03:30   SW 35/ 45  10.9  6.7  1003.9    9.7   0.0   0.1   0.0   ----- 
Sat 03:40   SW 37/ 52  11.1  6.4  1004.0    9.7   0.0  ----   0.0   ----- 
Sat 03:50   SW 43/ 52  11.3  6.8  1004.0    9.7   0.0  ----   0.0   ----- 
Sat 04:00  SSW 45/ 58  11.3  6.4  1004.2    9.7   0.0   0.0   0.0   ----- 
Sat 04:10   SW 46/ 63  11.6  6.9  1004.1    9.8   0.1  ----   0.1   ----- 
Sat 04:20   SW 52/ 65  11.2  7.1  1004.3   10.0   0.2  ----   0.2   ----- 
Sat 04:30   SW 52/ 67  11.6  7.1  1004.4   10.0   0.0   0.3   0.0   ----- 
Sat 04:40  SSW 52/ 67  11.6  6.4  1004.6   10.0   0.0  ----   0.0   ----- 
Sat 04:50  SSW 56/ 74  11.5  6.2  1004.8   10.0   0.0  ----   0.0   ----- 
Sat 05:00   SW 56/ 74  11.1  6.5  1005.3   10.0   0.0   0.3   0.0   ----- 
Sat 05:10   SW 58/ 72  11.1  6.8  1005.5   10.0   0.0   0.0   0.0   ----- 
Sat 05:20   SW 58/ 74  10.8  5.9  1005.5   10.1   0.0   0.0   0.1   ----- 
Sat 05:30  SSW 59/ 78  10.3  6.3  1006.0   10.3   0.0   0.0   0.2   -----